sensor_id;sensor_type;location;lat;lon;timestamp;temperature;humidity
8178;DHT22;4130;48.740;9.132;2022-12-07T00:00:44;3.40;99.90
8178;DHT22;4130;48.740;9.132;2022-12-07T00:03:12;3.30;99.90
8178;DHT22;4130;48.740;9.132;2022-12-07T00:05:39;3.30;99.90
8178;DHT22;4130;48.740;9.132;2022-12-07T00:08:06;3.80;99.90
8178;DHT22;4130;48.740;9.132;2022-12-07T00:10:33;3.30;99.90
8178;DHT22;4130;48.740;9.132;2022-12-07T00:13:00;3.30;99.90
8178;DHT22;4130;48.740;9.132;2022-12-07T00:15:27;3.30;99.90
8178;DHT22;4130;48.740;9.132;2022-12-07T00:17:53;3.30;99.90
8178;DHT22;4130;48.740;9.132;2022-12-07T00:20:21;3.30;99.90
8178;DHT22;4130;48.740;9.132;2022-12-07T00:22:48;3.30;99.90
8178;DHT22;4130;48.740;9.132;2022-12-07T00:25:15;3.30;99.90
8178;DHT22;4130;48.740;9.132;2022-12-07T00:27:44;3.30;99.90
8178;DHT22;4130;48.740;9.132;2022-12-07T00:30:11;3.30;99.90
8178;DHT22;4130;48.740;9.132;2022-12-07T00:32:38;3.30;99.90
8178;DHT22;4130;48.740;9.132;2022-12-07T00:35:05;3.40;99.90
8178;DHT22;4130;48.740;9.132;2022-12-07T00:37:33;3.40;99.90
8178;DHT22;4130;48.740;9.132;2022-12-07T00:40:00;3.30;99.90
8178;DHT22;4130;48.740;9.132;2022-12-07T00:42:26;3.30;99.90
8178;DHT22;4130;48.740;9.132;2022-12-07T00:44:53;3.30;99.90
8178;DHT22;4130;48.740;9.132;2022-12-07T00:47:20;3.30;99.90
8178;DHT22;4130;48.740;9.132;2022-12-07T00:49:47;3.30;99.90
8178;DHT22;4130;48.740;9.132;2022-12-07T00:52:13;3.20;99.90
8178;DHT22;4130;48.740;9.132;2022-12-07T00:54:41;3.30;99.90
8178;DHT22;4130;48.740;9.132;2022-12-07T00:57:08;3.30;99.90
8178;DHT22;4130;48.740;9.132;2022-12-07T00:59:36;3.20;99.90
8178;DHT22;4130;48.740;9.132;2022-12-07T01:02:03;3.20;99.90
8178;DHT22;4130;48.740;9.132;2022-12-07T01:04:29;3.20;99.90
8178;DHT22;4130;48.740;9.132;2022-12-07T01:06:56;3.20;99.90
8178;DHT22;4130;48.740;9.132;2022-12-07T01:09:23;3.20;99.90
8178;DHT22;4130;48.740;9.132;2022-12-07T01:11:51;3.30;99.90
8178;DHT22;4130;48.740;9.132;2022-12-07T01:14:18;3.20;99.90
8178;DHT22;4130;48.740;9.132;2022-12-07T01:16:44;3.20;99.90
8178;DHT22;4130;48.740;9.132;2022-12-07T01:19:11;3.10;99.90
8178;DHT22;4130;48.740;9.132;2022-12-07T01:21:38;3.10;99.90
8178;DHT22;4130;48.740;9.132;2022-12-07T01:24:06;3.10;99.90
8178;DHT22;4130;48.740;9.132;2022-12-07T01:26:33;3.00;99.90
8178;DHT22;4130;48.740;9.132;2022-12-07T01:29:02;3.00;99.90
8178;DHT22;4130;48.740;9.132;2022-12-07T01:31:29;3.00;99.90
8178;DHT22;4130;48.740;9.132;2022-12-07T01:33:58;3.00;99.90
8178;DHT22;4130;48.740;9.132;2022-12-07T01:36:26;2.90;99.90
8178;DHT22;4130;48.740;9.132;2022-12-07T01:38:55;2.90;99.90
8178;DHT22;4130;48.740;9.132;2022-12-07T01:41:23;3.00;99.90
8178;DHT22;4130;48.740;9.132;2022-12-07T01:44:12;3.00;99.90
8178;DHT22;4130;48.740;9.132;2022-12-07T01:46:40;2.90;99.90
8178;DHT22;4130;48.740;9.132;2022-12-07T01:49:09;2.90;99.90
8178;DHT22;4130;48.740;9.132;2022-12-07T01:51:38;2.90;99.90
8178;DHT22;4130;48.740;9.132;2022-12-07T01:54:07;2.90;99.90
8178;DHT22;4130;48.740;9.132;2022-12-07T01:56:34;2.90;99.90
8178;DHT22;4130;48.740;9.132;2022-12-07T01:59:01;2.70;99.90
8178;DHT22;4130;48.740;9.132;2022-12-07T02:01:30;2.80;99.90
8178;DHT22;4130;48.740;9.132;2022-12-07T02:03:57;3.90;99.90
8178;DHT22;4130;48.740;9.132;2022-12-07T02:06:25;2.70;99.90
8178;DHT22;4130;48.740;9.132;2022-12-07T02:08:52;2.80;99.90
8178;DHT22;4130;48.740;9.132;2022-12-07T02:11:20;2.70;99.90
8178;DHT22;4130;48.740;9.132;2022-12-07T02:13:47;3.00;99.90
8178;DHT22;4130;48.740;9.132;2022-12-07T02:16:25;2.80;99.90
8178;DHT22;4130;48.740;9.132;2022-12-07T02:19:04;2.80;99.90
8178;DHT22;4130;48.740;9.132;2022-12-07T02:21:43;2.70;99.90
8178;DHT22;4130;48.740;9.132;2022-12-07T02:24:19;2.70;99.90
8178;DHT22;4130;48.740;9.132;2022-12-07T02:30:02;2.60;99.90
8178;DHT22;4130;48.740;9.132;2022-12-07T02:32:40;2.70;99.90
8178;DHT22;4130;48.740;9.132;2022-12-07T02:35:11;2.70;99.90
8178;DHT22;4130;48.740;9.132;2022-12-07T02:37:42;2.70;99.90
8178;DHT22;4130;48.740;9.132;2022-12-07T02:40:16;2.70;99.90
8178;DHT22;4130;48.740;9.132;2022-12-07T02:42:47;2.80;99.90
8178;DHT22;4130;48.740;9.132;2022-12-07T02:45:20;3.30;99.90
8178;DHT22;4130;48.740;9.132;2022-12-07T02:47:51;2.80;99.90
8178;DHT22;4130;48.740;9.132;2022-12-07T02:50:20;2.80;99.90
8178;DHT22;4130;48.740;9.132;2022-12-07T02:52:47;2.80;99.90
8178;DHT22;4130;48.740;9.132;2022-12-07T02:55:16;2.70;99.90
8178;DHT22;4130;48.740;9.132;2022-12-07T02:57:54;2.80;99.90
8178;DHT22;4130;48.740;9.132;2022-12-07T03:00:25;2.80;99.90
8178;DHT22;4130;48.740;9.132;2022-12-07T03:02:55;2.80;99.90
8178;DHT22;4130;48.740;9.132;2022-12-07T03:05:44;2.80;99.90
8178;DHT22;4130;48.740;9.132;2022-12-07T03:08:21;2.80;99.90
8178;DHT22;4130;48.740;9.132;2022-12-07T03:10:55;2.70;99.90
8178;DHT22;4130;48.740;9.132;2022-12-07T03:13:27;2.70;99.90
8178;DHT22;4130;48.740;9.132;2022-12-07T03:16:02;2.70;99.90
8178;DHT22;4130;48.740;9.132;2022-12-07T03:18:31;2.70;99.90
8178;DHT22;4130;48.740;9.132;2022-12-07T03:21:02;2.70;99.90
8178;DHT22;4130;48.740;9.132;2022-12-07T03:23:32;2.70;99.90
8178;DHT22;4130;48.740;9.132;2022-12-07T03:26:01;2.70;99.90
8178;DHT22;4130;48.740;9.132;2022-12-07T03:28:32;2.70;99.90
8178;DHT22;4130;48.740;9.132;2022-12-07T03:31:05;2.70;99.90
8178;DHT22;4130;48.740;9.132;2022-12-07T03:33:39;2.70;99.90
8178;DHT22;4130;48.740;9.132;2022-12-07T03:36:10;2.70;99.90
8178;DHT22;4130;48.740;9.132;2022-12-07T03:38:40;2.70;99.90
8178;DHT22;4130;48.740;9.132;2022-12-07T03:41:11;2.70;99.90
8178;DHT22;4130;48.740;9.132;2022-12-07T03:43:39;2.70;99.90
8178;DHT22;4130;48.740;9.132;2022-12-07T03:46:17;3.80;99.90
8178;DHT22;4130;48.740;9.132;2022-12-07T03:48:51;2.70;99.90
8178;DHT22;4130;48.740;9.132;2022-12-07T03:51:22;2.70;99.90
8178;DHT22;4130;48.740;9.132;2022-12-07T03:53:54;2.70;99.90
8178;DHT22;4130;48.740;9.132;2022-12-07T03:56:22;2.70;99.90
8178;DHT22;4130;48.740;9.132;2022-12-07T03:58:50;2.70;99.90
8178;DHT22;4130;48.740;9.132;2022-12-07T04:01:19;2.70;99.90
8178;DHT22;4130;48.740;9.132;2022-12-07T04:03:46;2.60;99.90
8178;DHT22;4130;48.740;9.132;2022-12-07T04:06:13;2.60;99.90
8178;DHT22;4130;48.740;9.132;2022-12-07T04:08:40;3.60;99.90
8178;DHT22;4130;48.740;9.132;2022-12-07T04:11:07;2.60;99.90
8178;DHT22;4130;48.740;9.132;2022-12-07T04:13:33;2.60;99.90
8178;DHT22;4130;48.740;9.132;2022-12-07T04:16:22;2.60;99.90
8178;DHT22;4130;48.740;9.132;2022-12-07T04:18:49;2.90;99.90
8178;DHT22;4130;48.740;9.132;2022-12-07T04:21:15;2.50;99.90
8178;DHT22;4130;48.740;9.132;2022-12-07T04:23:42;2.50;99.90
8178;DHT22;4130;48.740;9.132;2022-12-07T04:26:09;2.50;99.90
8178;DHT22;4130;48.740;9.132;2022-12-07T04:28:41;3.30;99.90
8178;DHT22;4130;48.740;9.132;2022-12-07T04:31:08;2.50;99.90
8178;DHT22;4130;48.740;9.132;2022-12-07T04:33:36;2.60;99.90
8178;DHT22;4130;48.740;9.132;2022-12-07T04:36:04;2.50;99.90
8178;DHT22;4130;48.740;9.132;2022-12-07T04:38:31;2.50;99.90
8178;DHT22;4130;48.740;9.132;2022-12-07T04:40:57;2.50;99.90
8178;DHT22;4130;48.740;9.132;2022-12-07T04:43:24;2.40;99.90
8178;DHT22;4130;48.740;9.132;2022-12-07T04:45:51;2.40;99.90
8178;DHT22;4130;48.740;9.132;2022-12-07T04:48:17;2.40;99.90
8178;DHT22;4130;48.740;9.132;2022-12-07T04:50:48;2.30;99.90
8178;DHT22;4130;48.740;9.132;2022-12-07T04:53:15;2.30;99.90
8178;DHT22;4130;48.740;9.132;2022-12-07T04:55:42;2.40;99.90
8178;DHT22;4130;48.740;9.132;2022-12-07T04:58:09;2.40;99.90
8178;DHT22;4130;48.740;9.132;2022-12-07T05:00:35;2.40;99.90
8178;DHT22;4130;48.740;9.132;2022-12-07T05:03:02;2.40;99.90
8178;DHT22;4130;48.740;9.132;2022-12-07T05:05:29;2.50;99.90
8178;DHT22;4130;48.740;9.132;2022-12-07T05:07:57;2.40;99.90
8178;DHT22;4130;48.740;9.132;2022-12-07T05:10:24;2.30;99.90
8178;DHT22;4130;48.740;9.132;2022-12-07T05:12:50;2.30;99.90
8178;DHT22;4130;48.740;9.132;2022-12-07T05:15:17;3.20;99.90
8178;DHT22;4130;48.740;9.132;2022-12-07T05:17:44;2.20;99.90
8178;DHT22;4130;48.740;9.132;2022-12-07T05:20:11;2.80;99.90
8178;DHT22;4130;48.740;9.132;2022-12-07T05:22:38;2.30;99.90
8178;DHT22;4130;48.740;9.132;2022-12-07T05:25:07;2.30;99.90
8178;DHT22;4130;48.740;9.132;2022-12-07T05:27:36;2.20;99.90
8178;DHT22;4130;48.740;9.132;2022-12-07T05:30:03;2.20;99.90
8178;DHT22;4130;48.740;9.132;2022-12-07T05:32:30;2.10;99.90
8178;DHT22;4130;48.740;9.132;2022-12-07T05:34:57;1.90;99.90
8178;DHT22;4130;48.740;9.132;2022-12-07T05:37:24;2.60;99.90
8178;DHT22;4130;48.740;9.132;2022-12-07T05:39:51;1.70;99.90
8178;DHT22;4130;48.740;9.132;2022-12-07T05:42:19;1.50;99.90
8178;DHT22;4130;48.740;9.132;2022-12-07T05:44:46;1.60;99.90
8178;DHT22;4130;48.740;9.132;2022-12-07T05:47:15;1.10;99.90
8178;DHT22;4130;48.740;9.132;2022-12-07T05:49:42;1.00;99.90
8178;DHT22;4130;48.740;9.132;2022-12-07T05:52:09;0.90;99.90
8178;DHT22;4130;48.740;9.132;2022-12-07T05:54:36;0.80;99.90
8178;DHT22;4130;48.740;9.132;2022-12-07T05:57:03;0.70;99.90
8178;DHT22;4130;48.740;9.132;2022-12-07T05:59:44;0.70;99.90
8178;DHT22;4130;48.740;9.132;2022-12-07T06:02:11;0.60;99.90
8178;DHT22;4130;48.740;9.132;2022-12-07T06:04:39;0.60;99.90
8178;DHT22;4130;48.740;9.132;2022-12-07T06:07:07;0.70;99.90
8178;DHT22;4130;48.740;9.132;2022-12-07T06:09:34;0.70;99.90
8178;DHT22;4130;48.740;9.132;2022-12-07T06:12:01;1.90;99.90
8178;DHT22;4130;48.740;9.132;2022-12-07T06:14:47;0.80;99.90
8178;DHT22;4130;48.740;9.132;2022-12-07T06:17:15;0.90;99.90
8178;DHT22;4130;48.740;9.132;2022-12-07T06:19:42;1.00;99.90
8178;DHT22;4130;48.740;9.132;2022-12-07T06:22:09;1.10;99.90
8178;DHT22;4130;48.740;9.132;2022-12-07T06:24:37;1.20;99.90
8178;DHT22;4130;48.740;9.132;2022-12-07T06:27:05;1.20;99.90
8178;DHT22;4130;48.740;9.132;2022-12-07T06:29:34;1.30;99.90
8178;DHT22;4130;48.740;9.132;2022-12-07T06:32:02;1.40;99.90
8178;DHT22;4130;48.740;9.132;2022-12-07T06:34:30;1.40;99.90
8178;DHT22;4130;48.740;9.132;2022-12-07T06:36:57;1.90;99.90
8178;DHT22;4130;48.740;9.132;2022-12-07T06:39:26;1.40;99.90
8178;DHT22;4130;48.740;9.132;2022-12-07T06:41:53;1.40;99.90
8178;DHT22;4130;48.740;9.132;2022-12-07T06:44:20;1.40;99.90
8178;DHT22;4130;48.740;9.132;2022-12-07T06:46:48;1.40;99.90
8178;DHT22;4130;48.740;9.132;2022-12-07T06:49:24;1.40;99.90
8178;DHT22;4130;48.740;9.132;2022-12-07T06:51:51;1.50;99.90
8178;DHT22;4130;48.740;9.132;2022-12-07T06:54:18;1.50;99.90
8178;DHT22;4130;48.740;9.132;2022-12-07T06:56:45;1.50;99.90
8178;DHT22;4130;48.740;9.132;2022-12-07T06:59:11;1.50;99.90
8178;DHT22;4130;48.740;9.132;2022-12-07T07:01:38;1.40;99.90
8178;DHT22;4130;48.740;9.132;2022-12-07T07:04:05;1.50;99.90
8178;DHT22;4130;48.740;9.132;2022-12-07T07:06:33;1.50;99.90
8178;DHT22;4130;48.740;9.132;2022-12-07T07:09:00;1.60;99.90
8178;DHT22;4130;48.740;9.132;2022-12-07T07:11:27;2.40;99.90
8178;DHT22;4130;48.740;9.132;2022-12-07T07:13:53;1.70;99.90
8178;DHT22;4130;48.740;9.132;2022-12-07T07:16:22;1.70;99.90
8178;DHT22;4130;48.740;9.132;2022-12-07T07:18:49;1.80;99.90
8178;DHT22;4130;48.740;9.132;2022-12-07T07:21:16;1.80;99.90
8178;DHT22;4130;48.740;9.132;2022-12-07T07:23:44;1.80;99.90
8178;DHT22;4130;48.740;9.132;2022-12-07T07:26:11;2.20;99.90
8178;DHT22;4130;48.740;9.132;2022-12-07T07:28:38;1.80;99.90
8178;DHT22;4130;48.740;9.132;2022-12-07T07:31:05;1.90;99.90
8178;DHT22;4130;48.740;9.132;2022-12-07T07:33:31;2.00;99.90
8178;DHT22;4130;48.740;9.132;2022-12-07T07:35:58;3.00;99.90
8178;DHT22;4130;48.740;9.132;2022-12-07T07:38:25;2.00;99.90
8178;DHT22;4130;48.740;9.132;2022-12-07T07:40:53;2.00;99.90
8178;DHT22;4130;48.740;9.132;2022-12-07T07:43:20;2.10;99.90
8178;DHT22;4130;48.740;9.132;2022-12-07T07:45:47;2.10;99.90
8178;DHT22;4130;48.740;9.132;2022-12-07T07:48:13;2.10;99.90
8178;DHT22;4130;48.740;9.132;2022-12-07T07:50:40;3.60;99.90
8178;DHT22;4130;48.740;9.132;2022-12-07T07:53:07;2.20;99.90
8178;DHT22;4130;48.740;9.132;2022-12-07T07:55:34;2.20;99.90
8178;DHT22;4130;48.740;9.132;2022-12-07T07:58:02;2.30;99.90
8178;DHT22;4130;48.740;9.132;2022-12-07T08:00:29;2.40;99.90
8178;DHT22;4130;48.740;9.132;2022-12-07T08:02:56;2.30;99.90
8178;DHT22;4130;48.740;9.132;2022-12-07T08:05:23;3.70;99.90
8178;DHT22;4130;48.740;9.132;2022-12-07T08:07:49;2.50;99.90
8178;DHT22;4130;48.740;9.132;2022-12-07T08:10:16;2.50;99.90
8178;DHT22;4130;48.740;9.132;2022-12-07T08:12:43;2.60;99.90
8178;DHT22;4130;48.740;9.132;2022-12-07T08:15:30;2.70;99.90
8178;DHT22;4130;48.740;9.132;2022-12-07T08:17:57;2.80;99.90
8178;DHT22;4130;48.740;9.132;2022-12-07T08:20:25;2.80;99.90
8178;DHT22;4130;48.740;9.132;2022-12-07T08:22:51;2.90;99.90
8178;DHT22;4130;48.740;9.132;2022-12-07T08:25:18;3.00;99.90
8178;DHT22;4130;48.740;9.132;2022-12-07T08:27:45;3.00;99.90
8178;DHT22;4130;48.740;9.132;2022-12-07T08:30:12;3.00;99.90
8178;DHT22;4130;48.740;9.132;2022-12-07T08:32:40;3.10;99.90
8178;DHT22;4130;48.740;9.132;2022-12-07T08:35:08;3.20;99.90
8178;DHT22;4130;48.740;9.132;2022-12-07T08:37:35;3.20;99.90
8178;DHT22;4130;48.740;9.132;2022-12-07T08:40:03;3.10;99.90
8178;DHT22;4130;48.740;9.132;2022-12-07T08:42:30;3.30;99.90
8178;DHT22;4130;48.740;9.132;2022-12-07T08:45:04;3.30;99.90
8178;DHT22;4130;48.740;9.132;2022-12-07T08:47:32;3.40;99.90
8178;DHT22;4130;48.740;9.132;2022-12-07T08:50:01;3.60;99.90
8178;DHT22;4130;48.740;9.132;2022-12-07T08:52:29;3.50;99.90
8178;DHT22;4130;48.740;9.132;2022-12-07T08:54:56;3.60;99.90
8178;DHT22;4130;48.740;9.132;2022-12-07T08:57:24;3.60;99.90
8178;DHT22;4130;48.740;9.132;2022-12-07T08:59:51;3.70;99.90
8178;DHT22;4130;48.740;9.132;2022-12-07T09:02:18;3.80;99.90
8178;DHT22;4130;48.740;9.132;2022-12-07T09:04:45;5.00;99.90
8178;DHT22;4130;48.740;9.132;2022-12-07T09:07:13;5.20;99.90
8178;DHT22;4130;48.740;9.132;2022-12-07T09:09:40;4.40;99.90
8178;DHT22;4130;48.740;9.132;2022-12-07T09:12:07;3.90;99.90
8178;DHT22;4130;48.740;9.132;2022-12-07T09:14:34;4.00;99.90
8178;DHT22;4130;48.740;9.132;2022-12-07T09:17:06;4.00;99.90
8178;DHT22;4130;48.740;9.132;2022-12-07T09:19:33;4.00;99.90
8178;DHT22;4130;48.740;9.132;2022-12-07T09:22:00;4.10;99.90
8178;DHT22;4130;48.740;9.132;2022-12-07T09:24:28;4.20;99.90
8178;DHT22;4130;48.740;9.132;2022-12-07T09:26:55;4.20;99.90
8178;DHT22;4130;48.740;9.132;2022-12-07T09:29:22;4.30;99.90
8178;DHT22;4130;48.740;9.132;2022-12-07T09:31:48;4.40;99.90
8178;DHT22;4130;48.740;9.132;2022-12-07T09:34:15;4.30;99.90
8178;DHT22;4130;48.740;9.132;2022-12-07T09:36:42;4.40;99.90
8178;DHT22;4130;48.740;9.132;2022-12-07T09:39:09;4.30;99.90
8178;DHT22;4130;48.740;9.132;2022-12-07T09:41:39;4.30;99.90
8178;DHT22;4130;48.740;9.132;2022-12-07T09:44:11;4.40;99.90
8178;DHT22;4130;48.740;9.132;2022-12-07T09:46:40;4.50;99.90
8178;DHT22;4130;48.740;9.132;2022-12-07T09:49:11;4.60;99.90
8178;DHT22;4130;48.740;9.132;2022-12-07T09:51:38;4.60;99.90
8178;DHT22;4130;48.740;9.132;2022-12-07T09:54:05;4.80;99.90
8178;DHT22;4130;48.740;9.132;2022-12-07T09:56:32;4.90;99.90
8178;DHT22;4130;48.740;9.132;2022-12-07T09:59:02;5.00;99.90
8178;DHT22;4130;48.740;9.132;2022-12-07T10:01:30;5.00;99.90
8178;DHT22;4130;48.740;9.132;2022-12-07T10:04:05;5.00;99.90
8178;DHT22;4130;48.740;9.132;2022-12-07T10:06:32;5.10;99.90
8178;DHT22;4130;48.740;9.132;2022-12-07T10:08:59;5.00;99.90
8178;DHT22;4130;48.740;9.132;2022-12-07T10:11:26;5.00;99.90
8178;DHT22;4130;48.740;9.132;2022-12-07T10:13:53;5.00;99.90
8178;DHT22;4130;48.740;9.132;2022-12-07T10:16:37;6.20;99.90
8178;DHT22;4130;48.740;9.132;2022-12-07T10:19:22;5.20;99.90
8178;DHT22;4130;48.740;9.132;2022-12-07T10:22:12;5.00;99.90
8178;DHT22;4130;48.740;9.132;2022-12-07T10:24:40;5.10;99.90
8178;DHT22;4130;48.740;9.132;2022-12-07T10:27:21;5.00;99.90
8178;DHT22;4130;48.740;9.132;2022-12-07T10:29:55;5.00;99.90
8178;DHT22;4130;48.740;9.132;2022-12-07T10:32:33;5.10;99.90
8178;DHT22;4130;48.740;9.132;2022-12-07T10:35:22;5.10;99.90
8178;DHT22;4130;48.740;9.132;2022-12-07T10:37:50;5.10;99.90
8178;DHT22;4130;48.740;9.132;2022-12-07T10:40:32;5.30;99.90
8178;DHT22;4130;48.740;9.132;2022-12-07T10:43:17;5.20;99.90
8178;DHT22;4130;48.740;9.132;2022-12-07T10:46:07;5.90;99.90
8178;DHT22;4130;48.740;9.132;2022-12-07T10:48:48;5.20;99.90
8178;DHT22;4130;48.740;9.132;2022-12-07T10:51:25;5.30;99.90
8178;DHT22;4130;48.740;9.132;2022-12-07T10:54:02;5.20;99.90
8178;DHT22;4130;48.740;9.132;2022-12-07T10:56:49;5.10;99.90
8178;DHT22;4130;48.740;9.132;2022-12-07T10:59:35;5.00;99.90
8178;DHT22;4130;48.740;9.132;2022-12-07T11:02:21;5.20;99.90
8178;DHT22;4130;48.740;9.132;2022-12-07T11:04:59;5.10;99.90
8178;DHT22;4130;48.740;9.132;2022-12-07T11:07:38;5.10;99.90
8178;DHT22;4130;48.740;9.132;2022-12-07T11:10:13;5.10;99.90
8178;DHT22;4130;48.740;9.132;2022-12-07T11:15:40;5.20;99.90
8178;DHT22;4130;48.740;9.132;2022-12-07T11:18:14;5.30;99.90
8178;DHT22;4130;48.740;9.132;2022-12-07T11:20:53;5.40;99.90
8178;DHT22;4130;48.740;9.132;2022-12-07T11:23:27;5.50;99.90
8178;DHT22;4130;48.740;9.132;2022-12-07T11:26:02;5.50;99.90
8178;DHT22;4130;48.740;9.132;2022-12-07T11:28:39;5.50;99.90
8178;DHT22;4130;48.740;9.132;2022-12-07T11:31:16;5.50;99.90
8178;DHT22;4130;48.740;9.132;2022-12-07T11:33:47;6.70;99.90
8178;DHT22;4130;48.740;9.132;2022-12-07T11:36:31;5.50;99.90
8178;DHT22;4130;48.740;9.132;2022-12-07T11:39:01;6.30;99.90
8178;DHT22;4130;48.740;9.132;2022-12-07T11:41:33;5.40;99.90
8178;DHT22;4130;48.740;9.132;2022-12-07T11:44:08;5.40;99.90
8178;DHT22;4130;48.740;9.132;2022-12-07T11:46:47;5.30;99.90
8178;DHT22;4130;48.740;9.132;2022-12-07T11:49:22;5.50;99.90
8178;DHT22;4130;48.740;9.132;2022-12-07T11:51:54;5.30;99.90
8178;DHT22;4130;48.740;9.132;2022-12-07T11:54:27;5.30;99.90
8178;DHT22;4130;48.740;9.132;2022-12-07T11:56:56;5.00;99.90
8178;DHT22;4130;48.740;9.132;2022-12-07T11:59:31;5.90;99.90
8178;DHT22;4130;48.740;9.132;2022-12-07T12:02:07;5.50;99.90
8178;DHT22;4130;48.740;9.132;2022-12-07T12:04:47;6.50;99.90
8178;DHT22;4130;48.740;9.132;2022-12-07T12:07:22;5.50;99.90
8178;DHT22;4130;48.740;9.132;2022-12-07T12:09:52;5.50;99.90
8178;DHT22;4130;48.740;9.132;2022-12-07T12:12:38;5.40;99.90
8178;DHT22;4130;48.740;9.132;2022-12-07T12:15:19;5.40;99.90
8178;DHT22;4130;48.740;9.132;2022-12-07T12:18:13;5.30;99.90
8178;DHT22;4130;48.740;9.132;2022-12-07T12:20:47;5.20;99.90
8178;DHT22;4130;48.740;9.132;2022-12-07T12:23:20;5.20;99.90
8178;DHT22;4130;48.740;9.132;2022-12-07T12:25:49;5.20;99.90
8178;DHT22;4130;48.740;9.132;2022-12-07T12:28:23;5.10;99.90
8178;DHT22;4130;48.740;9.132;2022-12-07T12:31:11;5.30;99.90
8178;DHT22;4130;48.740;9.132;2022-12-07T12:33:46;5.20;99.90
8178;DHT22;4130;48.740;9.132;2022-12-07T12:36:42;5.20;99.90
8178;DHT22;4130;48.740;9.132;2022-12-07T12:39:13;5.10;99.90
8178;DHT22;4130;48.740;9.132;2022-12-07T12:42:00;5.20;99.90
8178;DHT22;4130;48.740;9.132;2022-12-07T12:47:56;4.80;99.90
8178;DHT22;4130;48.740;9.132;2022-12-07T12:50:25;4.70;99.90
8178;DHT22;4130;48.740;9.132;2022-12-07T12:53:02;4.60;99.90
8178;DHT22;4130;48.740;9.132;2022-12-07T12:58:47;4.50;99.90
8178;DHT22;4130;48.740;9.132;2022-12-07T13:01:44;4.50;99.90
8178;DHT22;4130;48.740;9.132;2022-12-07T13:04:37;4.50;99.90
8178;DHT22;4130;48.740;9.132;2022-12-07T13:07:13;4.50;99.90
8178;DHT22;4130;48.740;9.132;2022-12-07T13:09:44;4.90;99.90
8178;DHT22;4130;48.740;9.132;2022-12-07T13:12:14;4.50;99.90
8178;DHT22;4130;48.740;9.132;2022-12-07T13:14:58;4.80;99.90
8178;DHT22;4130;48.740;9.132;2022-12-07T13:18:01;4.60;99.90
8178;DHT22;4130;48.740;9.132;2022-12-07T13:20:58;4.70;99.90
8178;DHT22;4130;48.740;9.132;2022-12-07T13:23:29;4.80;99.90
8178;DHT22;4130;48.740;9.132;2022-12-07T13:26:18;4.80;99.90
8178;DHT22;4130;48.740;9.132;2022-12-07T13:28:47;4.80;99.90
8178;DHT22;4130;48.740;9.132;2022-12-07T13:31:23;5.40;99.90
8178;DHT22;4130;48.740;9.132;2022-12-07T13:33:51;5.00;99.90
8178;DHT22;4130;48.740;9.132;2022-12-07T13:36:21;4.80;99.90
8178;DHT22;4130;48.740;9.132;2022-12-07T13:38:52;4.70;99.90
8178;DHT22;4130;48.740;9.132;2022-12-07T13:41:20;4.60;99.90
8178;DHT22;4130;48.740;9.132;2022-12-07T13:44:02;4.70;99.90
8178;DHT22;4130;48.740;9.132;2022-12-07T13:46:43;4.70;99.90
8178;DHT22;4130;48.740;9.132;2022-12-07T13:49:20;4.70;99.90
8178;DHT22;4130;48.740;9.132;2022-12-07T13:51:47;4.70;99.90
8178;DHT22;4130;48.740;9.132;2022-12-07T13:54:15;4.80;99.90
8178;DHT22;4130;48.740;9.132;2022-12-07T13:56:42;5.50;99.90
8178;DHT22;4130;48.740;9.132;2022-12-07T13:59:17;4.90;99.90
8178;DHT22;4130;48.740;9.132;2022-12-07T14:01:48;4.90;99.90
8178;DHT22;4130;48.740;9.132;2022-12-07T14:04:33;4.90;99.90
8178;DHT22;4130;48.740;9.132;2022-12-07T14:07:01;4.80;99.90
8178;DHT22;4130;48.740;9.132;2022-12-07T14:09:54;4.80;99.90
8178;DHT22;4130;48.740;9.132;2022-12-07T14:12:24;4.70;99.90
8178;DHT22;4130;48.740;9.132;2022-12-07T14:14:52;4.70;99.90
8178;DHT22;4130;48.740;9.132;2022-12-07T14:17:22;4.70;99.90
8178;DHT22;4130;48.740;9.132;2022-12-07T14:19:51;4.60;99.90
8178;DHT22;4130;48.740;9.132;2022-12-07T14:22:27;4.60;99.90
8178;DHT22;4130;48.740;9.132;2022-12-07T14:25:19;4.50;99.90
8178;DHT22;4130;48.740;9.132;2022-12-07T14:27:53;4.50;99.90
8178;DHT22;4130;48.740;9.132;2022-12-07T14:30:27;4.50;99.90
8178;DHT22;4130;48.740;9.132;2022-12-07T14:32:58;4.50;99.90
8178;DHT22;4130;48.740;9.132;2022-12-07T14:35:26;4.50;99.90
8178;DHT22;4130;48.740;9.132;2022-12-07T14:37:53;4.40;99.90
8178;DHT22;4130;48.740;9.132;2022-12-07T14:40:21;4.40;99.90
8178;DHT22;4130;48.740;9.132;2022-12-07T14:42:51;4.40;99.90
8178;DHT22;4130;48.740;9.132;2022-12-07T14:45:20;4.30;99.90
8178;DHT22;4130;48.740;9.132;2022-12-07T14:47:47;4.20;99.90
8178;DHT22;4130;48.740;9.132;2022-12-07T14:50:18;4.20;99.90
8178;DHT22;4130;48.740;9.132;2022-12-07T14:52:47;4.10;99.90
8178;DHT22;4130;48.740;9.132;2022-12-07T14:55:19;4.10;99.90
8178;DHT22;4130;48.740;9.132;2022-12-07T14:57:58;4.10;99.90
8178;DHT22;4130;48.740;9.132;2022-12-07T15:00:27;4.10;99.90
8178;DHT22;4130;48.740;9.132;2022-12-07T15:02:55;4.10;99.90
8178;DHT22;4130;48.740;9.132;2022-12-07T15:05:23;4.00;99.90
8178;DHT22;4130;48.740;9.132;2022-12-07T15:07:51;4.00;99.90
8178;DHT22;4130;48.740;9.132;2022-12-07T15:10:19;4.00;99.90
8178;DHT22;4130;48.740;9.132;2022-12-07T15:12:46;3.90;99.90
8178;DHT22;4130;48.740;9.132;2022-12-07T15:15:13;3.80;99.90
8178;DHT22;4130;48.740;9.132;2022-12-07T15:17:41;3.80;99.90
8178;DHT22;4130;48.740;9.132;2022-12-07T15:20:11;3.80;99.90
8178;DHT22;4130;48.740;9.132;2022-12-07T15:22:40;3.80;99.90
8178;DHT22;4130;48.740;9.132;2022-12-07T15:25:08;3.80;99.90
8178;DHT22;4130;48.740;9.132;2022-12-07T15:27:35;3.80;99.90
8178;DHT22;4130;48.740;9.132;2022-12-07T15:30:03;4.70;99.90
8178;DHT22;4130;48.740;9.132;2022-12-07T15:32:29;3.70;99.90
8178;DHT22;4130;48.740;9.132;2022-12-07T15:35:03;3.60;99.90
8178;DHT22;4130;48.740;9.132;2022-12-07T15:37:30;3.70;99.90
8178;DHT22;4130;48.740;9.132;2022-12-07T15:39:58;3.70;99.90
8178;DHT22;4130;48.740;9.132;2022-12-07T15:42:25;3.60;99.90
8178;DHT22;4130;48.740;9.132;2022-12-07T15:44:52;4.30;99.90
8178;DHT22;4130;48.740;9.132;2022-12-07T15:47:34;4.60;99.90
8178;DHT22;4130;48.740;9.132;2022-12-07T15:50:03;3.60;99.90
8178;DHT22;4130;48.740;9.132;2022-12-07T15:52:38;3.70;99.90
8178;DHT22;4130;48.740;9.132;2022-12-07T15:55:08;3.60;99.90
8178;DHT22;4130;48.740;9.132;2022-12-07T15:57:37;3.60;99.90
8178;DHT22;4130;48.740;9.132;2022-12-07T16:00:05;4.10;99.90
8178;DHT22;4130;48.740;9.132;2022-12-07T16:02:36;3.40;99.90
8178;DHT22;4130;48.740;9.132;2022-12-07T16:05:03;3.50;99.90
8178;DHT22;4130;48.740;9.132;2022-12-07T16:07:30;3.40;99.90
8178;DHT22;4130;48.740;9.132;2022-12-07T16:09:57;3.40;99.90
8178;DHT22;4130;48.740;9.132;2022-12-07T16:12:26;3.40;99.90
8178;DHT22;4130;48.740;9.132;2022-12-07T16:14:54;3.20;99.90
8178;DHT22;4130;48.740;9.132;2022-12-07T16:17:20;3.20;99.90
8178;DHT22;4130;48.740;9.132;2022-12-07T16:19:47;3.20;99.90
8178;DHT22;4130;48.740;9.132;2022-12-07T16:22:15;3.10;99.90
8178;DHT22;4130;48.740;9.132;2022-12-07T16:24:42;3.10;99.90
8178;DHT22;4130;48.740;9.132;2022-12-07T16:27:09;3.00;99.90
8178;DHT22;4130;48.740;9.132;2022-12-07T16:29:37;3.00;99.90
8178;DHT22;4130;48.740;9.132;2022-12-07T16:32:05;3.00;99.90
8178;DHT22;4130;48.740;9.132;2022-12-07T16:34:31;2.90;99.90
8178;DHT22;4130;48.740;9.132;2022-12-07T16:36:59;2.80;99.90
8178;DHT22;4130;48.740;9.132;2022-12-07T16:39:26;2.80;99.90
8178;DHT22;4130;48.740;9.132;2022-12-07T16:41:53;2.70;99.90
8178;DHT22;4130;48.740;9.132;2022-12-07T16:44:20;2.70;99.90
8178;DHT22;4130;48.740;9.132;2022-12-07T16:46:48;2.60;99.90
8178;DHT22;4130;48.740;9.132;2022-12-07T16:49:15;2.50;99.90
8178;DHT22;4130;48.740;9.132;2022-12-07T16:51:52;2.10;99.90